Wilfred M Cohen — VCNK — position and weather

sailwx.info

Track history (hours):
 
Tides and Currents Weather Stations Pressure Air Temp Water Temp Dewpoint Dewpoint Depression Visibility Wind Speed Wind Dir Waves Ship Positions

Wilfred M Cohen

Last reported at 2018-Jun-19 10:35 UTC. Time now 2018-Jun-21 18:09 UTC.
Position N 45°22' W 085°37'.

MMSI: 314955479.

Date/timePositionNaut miles runAvg speedWind from/ knotsBaromVisibWave heightAir tempDewpointWater temp
2018-Jun-19 10:35N 45°22' W 085°37'2 7.6
2018-Jun-19 10:19N 45°24' W 085°35'2 7.6
2018-Jun-19 10:00N 45°26' W 085°33'4 7.8
2018-Jun-19 09:30N 45°29' W 085°30'4 7.8
2018-Jun-19 09:00N 45°32' W 085°26'4 7.7
2018-Jun-19 08:30N 45°35' W 085°23'4 7.7
2018-Jun-19 08:00N 45°38' W 085°20'4 7.8
2018-Jun-19 07:30N 45°41' W 085°16'4 7.5
2018-Jun-19 07:00N 45°44' W 085°12'3 6.5
2018-Jun-19 06:30N 45°46' W 085°09'4 7.4
2018-Jun-19 06:00N 45°50' W 085°08'4 7.6
2018-Jun-19 05:30N 45°50' W 085°02'4 7.8
2018-Jun-19 05:00N 45°50' W 084°57'4 7.6
2018-Jun-19 04:30N 45°49' W 084°51'4 7.5
2018-Jun-19 04:00N 45°49' W 084°46'4 7.2
2018-Jun-19 03:29N 45°50' W 084°40'5 7.5
2018-Jun-19 02:46N 45°51' W 084°33'2 7.4
2018-Jun-19 02:26N 45°52' W 084°30'  
Track history (hours):
 
Tides and Currents Weather Stations Pressure Air Temp Water Temp Dewpoint Dewpoint Depression Visibility Wind Speed Wind Dir Waves Ship Positions

Wilfred M Cohen

Last reported at 2018-Jun-19 10:35 UTC. Time now 2018-Jun-21 18:09 UTC.
Position N 45°22' W 085°37'.

MMSI: 314955479.

Date/timePositionNaut miles runAvg speedWind from/ knotsBaromVisibWave heightAir tempDewpointWater temp
2018-Jun-19 10:35N 45°22' W 085°37'2 7.6
2018-Jun-19 10:19N 45°24' W 085°35'2 7.6
2018-Jun-19 10:00N 45°26' W 085°33'4 7.8
2018-Jun-19 09:30N 45°29' W 085°30'4 7.8
2018-Jun-19 09:00N 45°32' W 085°26'4 7.7
2018-Jun-19 08:30N 45°35' W 085°23'4 7.7
2018-Jun-19 08:00N 45°38' W 085°20'4 7.8
2018-Jun-19 07:30N 45°41' W 085°16'4 7.5
2018-Jun-19 07:00N 45°44' W 085°12'3 6.5
2018-Jun-19 06:30N 45°46' W 085°09'4 7.4
2018-Jun-19 06:00N 45°50' W 085°08'4 7.6
2018-Jun-19 05:30N 45°50' W 085°02'4 7.8
2018-Jun-19 05:00N 45°50' W 084°57'4 7.6
2018-Jun-19 04:30N 45°49' W 084°51'4 7.5
2018-Jun-19 04:00N 45°49' W 084°46'4 7.2
2018-Jun-19 03:29N 45°50' W 084°40'5 7.5
2018-Jun-19 02:46N 45°51' W 084°33'2 7.4
2018-Jun-19 02:26N 45°52' W 084°30'  

Dump ship's entire track history